Ankazoabo Airport


Codes: FMSZ/WAK
Name: Ankazoabo Airport
City: Ankazoabo
Country: Madagascar
Elevation: 1411 ft.

Photos at Ankazoabo Airport


   Photos courtesy of SpottingLog. You can add your own sightings and photos by signing up for a free trial today.



No photos found.

Weather at Ankazoabo Airport


Time (UTC)DescriptionTempratureWindCloud coverageVisibilityPressureHumidity
23-May-2024 21:00Clear Sky16°C4 mph, SE0%10000m1021hPa77%
24-May-2024 00:00Clear Sky15°C4 mph, SE0%10000m1021hPa80%
24-May-2024 03:00Clear Sky15°C4 mph, SE0%10000m1021hPa82%
24-May-2024 06:00Clear Sky23°C7 mph, E0%10000m1022hPa45%
24-May-2024 09:00Clear Sky28°C9 mph, NE0%10000m1019hPa33%
24-May-2024 12:00Clear Sky29°C4 mph, NE0%10000m1017hPa30%
24-May-2024 15:00Clear Sky21°C0 mph, N0%10000m1017hPa47%
24-May-2024 18:00Clear Sky19°C4 mph, SE0%10000m1020hPa51%
24-May-2024 21:00Clear Sky16°C7 mph, S0%10000m1020hPa72%
25-May-2024 00:00Clear Sky15°C4 mph, SE0%10000m1019hPa77%
25-May-2024 03:00Clear Sky15°C4 mph, SE0%10000m1019hPa80%
25-May-2024 06:00Clear Sky23°C2 mph, SE0%10000m1020hPa49%
25-May-2024 09:00Clear Sky29°C2 mph, SW0%10000m1017hPa28%
25-May-2024 12:00Clear Sky30°C2 mph, W0%10000m1015hPa22%
25-May-2024 15:00Clear Sky21°C2 mph, SW0%10000m1015hPa37%
25-May-2024 18:00Clear Sky18°C9 mph, S0%10000m1018hPa58%
25-May-2024 21:00Clear Sky16°C7 mph, S0%10000m1018hPa86%
26-May-2024 00:00Clear Sky15°C7 mph, S1%10000m1017hPa93%
26-May-2024 03:00Clear Sky14°C4 mph, SE4%10000m1018hPa93%
26-May-2024 06:00Clear Sky22°C4 mph, SE2%10000m1018hPa53%
26-May-2024 09:00Clear Sky29°C4 mph, W0%10000m1017hPa29%
26-May-2024 12:00Clear Sky29°C4 mph, W0%10000m1015hPa24%
26-May-2024 15:00Clear Sky21°C4 mph, SW0%10000m1016hPa41%
26-May-2024 18:00Clear Sky18°C7 mph, S0%10000m1019hPa64%
26-May-2024 21:00Clear Sky16°C7 mph, S0%10000m1019hPa88%
27-May-2024 00:00Clear Sky15°C7 mph, S0%10000m1018hPa89%
27-May-2024 03:00Clear Sky14°C7 mph, S1%10000m1020hPa90%
27-May-2024 06:00Clear Sky21°C9 mph, S2%10000m1021hPa55%
27-May-2024 09:00Clear Sky28°C7 mph, S0%10000m1019hPa26%
27-May-2024 12:00Clear Sky28°C9 mph, S0%10000m1017hPa25%
27-May-2024 15:00Clear Sky21°C9 mph, S0%10000m1019hPa42%
27-May-2024 18:00Clear Sky19°C13 mph, S0%10000m1021hPa65%
27-May-2024 21:00Clear Sky16°C9 mph, S0%10000m1021hPa75%
28-May-2024 00:00Clear Sky15°C9 mph, S0%10000m1021hPa80%
28-May-2024 03:00Clear Sky14°C7 mph, SE0%10000m1022hPa82%
28-May-2024 06:00Clear Sky22°C9 mph, SE0%10000m1022hPa52%
28-May-2024 09:00Clear Sky28°C4 mph, E0%10000m1020hPa28%
28-May-2024 12:00Clear Sky29°C2 mph, E0%10000m1018hPa22%
28-May-2024 15:00Clear Sky21°C4 mph, SE0%10000m1019hPa37%
28-May-2024 18:00Clear Sky18°C7 mph, SE0%10000m1020hPa54%